Time;durP1;ratioP1;P1;durP2;ratioP2;P2;SDS_P1;SDS_P2;PMS_P1;PMS_P2;Temp;Humidity;BMP_temperature;BMP_pressure;BME280_temperature;BME280_humidity;BME280_pressure;Samples;Min_cycle;Max_cycle;Signal;HPM_P1;HPM_P2
2023/01/04 00:00:17;;;;;;;7.82;1.83;;;26.30;99.90;;;;;;5049895;28;20314;-85
2023/01/04 00:02:48;;;;;;;5.00;1.50;;;26.30;99.90;;;;;;5032414;28;20562;-85
2023/01/04 00:05:19;;;;;;;9.93;2.47;;;26.50;99.90;;;;;;5030901;28;20205;-85
2023/01/04 00:07:51;;;;;;;8.50;1.88;;;26.50;99.90;;;;;;5028054;28;20215;-85
2023/01/04 00:10:24;;;;;;;7.95;1.80;;;26.40;99.90;;;;;;5028920;28;20197;-84
2023/01/04 00:12:54;;;;;;;5.82;1.80;;;26.40;99.90;;;;;;5028752;28;20197;-86
2023/01/04 00:15:25;;;;;;;8.32;2.13;;;26.40;99.90;;;;;;5030253;28;20205;-85
2023/01/04 00:17:56;;;;;;;7.32;2.13;;;26.50;99.90;;;;;;5030659;28;20239;-85
2023/01/04 00:20:27;;;;;;;6.82;1.88;;;26.50;99.90;;;;;;5034752;28;20582;-84
2023/01/04 00:22:57;;;;;;;9.52;1.85;;;26.50;99.90;;;;;;5027587;28;20556;-84
2023/01/04 00:25:30;;;;;;;8.18;2.05;;;26.60;99.90;;;;;;5031602;28;20199;-84
2023/01/04 00:28:01;;;;;;;8.38;1.92;;;26.50;99.90;;;;;;5044967;28;20768;-84
2023/01/04 00:30:32;;;;;;;8.23;1.80;;;26.50;99.90;;;;;;5042059;28;20196;-85
2023/01/04 00:33:03;;;;;;;8.55;1.73;;;26.40;99.90;;;;;;5029088;28;20201;-85
2023/01/04 00:35:36;;;;;;;7.45;1.70;;;26.50;99.90;;;;;;5026864;28;20205;-84
2023/01/04 00:38:07;;;;;;;12.07;2.05;;;26.40;99.90;;;;;;5028221;28;20679;-84
2023/01/04 00:40:39;;;;;;;6.03;1.60;;;26.40;99.90;;;;;;5029035;28;20204;-85
2023/01/04 00:43:10;;;;;;;7.20;2.00;;;26.50;99.90;;;;;;5027899;28;20705;-86
2023/01/04 00:45:41;;;;;;;6.35;1.70;;;26.50;99.90;;;;;;5028215;28;20528;-85
2023/01/04 00:48:12;;;;;;;7.55;2.00;;;26.40;99.90;;;;;;5037099;28;20205;-85
2023/01/04 00:50:44;;;;;;;10.65;2.08;;;26.40;99.90;;;;;;5044422;28;20196;-85
2023/01/04 00:53:16;;;;;;;6.63;1.85;;;26.40;99.90;;;;;;5050368;28;20201;-85
2023/01/04 00:55:49;;;;;;;7.75;1.92;;;26.40;99.90;;;;;;5052367;28;20203;-85
2023/01/04 00:58:20;;;;;;;7.00;1.90;;;26.40;99.90;;;;;;5035855;28;20204;-85
2023/01/04 01:00:51;;;;;;;6.82;1.80;;;26.50;99.90;;;;;;5045602;28;20200;-85
2023/01/04 01:03:22;;;;;;;12.13;2.50;;;26.40;99.90;;;;;;5030170;28;20761;-85
2023/01/04 01:05:53;;;;;;;8.98;2.20;;;26.50;99.90;;;;;;5027823;28;20208;-84
2023/01/04 01:08:29;;;;;;;11.10;2.17;;;26.50;99.90;;;;;;5026778;28;20215;-83
2023/01/04 01:11:06;;;;;;;8.65;2.00;;;26.50;99.90;;;;;;5027547;28;20854;-84
2023/01/04 01:13:40;;;;;;;7.95;2.13;;;26.50;99.90;;;;;;5026818;28;20663;-83
2023/01/04 01:16:12;;;;;;;11.43;2.50;;;26.50;99.90;;;;;;5028107;28;20200;-83
2023/01/04 01:18:44;;;;;;;10.13;2.13;;;26.40;99.90;;;;;;5026437;28;20587;-84
2023/01/04 01:21:20;;;;;;;7.82;2.03;;;26.30;99.90;;;;;;5031583;28;20201;-83
2023/01/04 01:23:55;;;;;;;8.25;2.08;;;26.30;99.90;;;;;;5026151;28;20301;-84
2023/01/04 01:26:31;;;;;;;8.10;2.10;;;26.30;99.90;;;;;;5031991;28;20663;-83
2023/01/04 01:29:02;;;;;;;7.55;2.05;;;26.20;99.90;;;;;;5027539;28;21210;-84
2023/01/04 01:31:33;;;;;;;6.22;1.80;;;26.20;99.90;;;;;;5027485;28;20197;-84
2023/01/04 01:34:05;;;;;;;6.88;2.25;;;26.20;99.90;;;;;;5034257;28;20693;-84
2023/01/04 01:36:36;;;;;;;8.65;1.88;;;26.20;99.90;;;;;;5031280;28;20979;-83
2023/01/04 01:39:08;;;;;;;10.98;2.08;;;26.20;99.90;;;;;;5013816;28;20557;-86
2023/01/04 01:41:42;;;;;;;9.25;2.80;;;26.10;99.90;;;;;;5029301;28;20287;-83
2023/01/04 01:44:44;;;;;;;7.97;2.42;;;26.20;99.90;;;;;;5026691;28;20716;-84
2023/01/04 01:47:17;;;;;;;6.72;1.92;;;26.30;99.90;;;;;;5029037;28;20215;-84
2023/01/04 01:49:52;;;;;;;5.97;2.20;;;26.50;99.90;;;;;;5026133;28;20200;-84
2023/01/04 01:52:27;;;;;;;6.32;2.03;;;26.60;99.90;;;;;;5027399;28;20200;-84
2023/01/04 01:55:01;;;;;;;6.15;2.00;;;26.70;99.90;;;;;;5029875;28;20347;-85
2023/01/04 01:57:37;;;;;;;6.38;2.17;;;26.60;99.90;;;;;;5028289;28;20360;-84
2023/01/04 02:00:12;;;;;;;5.88;1.83;;;26.60;99.90;;;;;;5029590;28;20196;-85
2023/01/04 02:02:54;;;;;;;7.47;1.88;;;26.60;99.90;;;;;;5045138;28;20247;-85
2023/01/04 02:05:26;;;;;;;10.68;2.28;;;26.70;99.90;;;;;;5032474;28;20224;-85
2023/01/04 02:07:57;;;;;;;5.80;1.55;;;26.80;99.90;;;;;;5029302;28;20192;-84
2023/01/04 02:10:28;;;;;;;12.18;2.38;;;26.80;99.90;;;;;;5029423;28;20205;-84
2023/01/04 02:13:04;;;;;;;7.10;2.20;;;26.90;99.90;;;;;;5030066;28;20247;-84
2023/01/04 02:15:45;;;;;;;8.25;2.30;;;27.00;99.90;;;;;;5030697;28;20192;-83
2023/01/04 02:18:19;;;;;;;8.88;1.98;;;27.00;99.90;;;;;;5030709;28;20315;-83
2023/01/04 02:20:57;;;;;;;7.03;2.15;;;27.10;99.90;;;;;;5034319;28;20222;-85
2023/01/04 02:24:10;;;;;;;11.13;2.38;;;27.00;99.90;;;;;;5035600;28;20196;-85
2023/01/04 02:27:18;;;;;;;7.70;1.90;;;27.10;99.90;;;;;;4986093;28;20218;-84
2023/01/04 02:30:13;;;;;;;7.90;2.17;;;27.10;99.90;;;;;;5028969;28;20295;-84
2023/01/04 02:32:59;;;;;;;7.90;2.08;;;27.10;99.90;;;;;;5027924;28;20243;-84
2023/01/04 02:35:33;;;;;;;7.70;2.05;;;27.10;99.90;;;;;;5029010;28;20664;-84
2023/01/04 02:38:12;;;;;;;7.35;1.80;;;27.10;99.90;;;;;;5029000;28;20221;-85
2023/01/04 02:40:51;;;;;;;11.60;2.35;;;27.00;99.90;;;;;;5031910;28;20312;-84
2023/01/04 02:46:21;;;;;;;8.32;1.80;;;26.80;99.90;;;;;;5033748;28;21808;-83
2023/01/04 02:51:40;;;;;;;7.13;1.85;;;26.70;99.90;;;;;;5030404;28;20216;-84
2023/01/04 02:54:17;;;;;;;11.38;1.90;;;26.40;99.90;;;;;;5030987;28;20212;-85
2023/01/04 02:57:14;;;;;;;9.73;1.88;;;26.30;99.90;;;;;;5031377;28;20196;-85
2023/01/04 03:00:11;;;;;;;8.18;1.88;;;26.30;99.90;;;;;;5029819;28;20201;-84
2023/01/04 03:06:18;;;;;;;9.02;2.03;;;26.20;99.90;;;;;;5051015;28;20238;-85
2023/01/04 03:09:15;;;;;;;8.27;1.80;;;26.10;99.90;;;;;;5031959;28;20197;-85
2023/01/04 03:14:40;;;;;;;6.53;1.80;;;26.00;99.90;;;;;;5053860;28;21361;-84
2023/01/04 03:17:21;;;;;;;8.20;2.10;;;25.90;99.90;;;;;;5043665;28;20378;-85
2023/01/04 03:20:05;;;;;;;10.38;2.13;;;25.90;99.90;;;;;;5032077;28;20196;-84
2023/01/04 03:37:00;;;;;;;7.88;1.80;;;25.60;99.90;;;;;;5029194;28;20639;-84
2023/01/04 03:48:31;;;;;;;6.45;2.17;;;25.40;99.90;;;;;;5029955;28;20246;-83
2023/01/04 03:51:08;;;;;;;12.02;1.90;;;25.40;99.90;;;;;;5031597;28;20582;-83
2023/01/04 03:53:47;;;;;;;7.10;2.03;;;25.40;99.90;;;;;;5028560;28;20201;-83
2023/01/04 03:56:26;;;;;;;8.30;1.90;;;25.30;99.90;;;;;;5029059;28;20204;-83
2023/01/04 03:59:00;;;;;;;7.55;2.03;;;25.20;99.90;;;;;;5029740;28;20197;-84
2023/01/04 04:01:31;;;;;;;9.73;2.03;;;25.10;99.90;;;;;;5031849;28;21783;-84
2023/01/04 04:09:38;;;;;;;8.27;2.65;;;24.80;99.90;;;;;;5039097;28;20211;-85
2023/01/04 04:12:12;;;;;;;9.98;2.42;;;24.70;99.90;;;;;;5029370;28;20316;-87
2023/01/04 04:14:46;;;;;;;12.05;3.10;;;24.70;99.90;;;;;;5031256;28;20197;-85
2023/01/04 04:17:24;;;;;;;9.05;2.92;;;24.60;99.90;;;;;;5039975;28;20220;-85
2023/01/04 04:19:55;;;;;;;12.07;2.90;;;24.50;99.90;;;;;;5039784;28;20705;-85
2023/01/04 04:22:26;;;;;;;10.90;2.85;;;24.60;99.90;;;;;;5030681;28;21549;-86
2023/01/04 04:24:57;;;;;;;7.72;2.42;;;24.60;99.90;;;;;;5030590;28;20227;-85
2023/01/04 04:27:30;;;;;;;9.07;2.97;;;24.60;99.90;;;;;;5031598;28;20583;-85
2023/01/04 04:30:01;;;;;;;10.80;2.83;;;24.60;99.90;;;;;;5029296;28;20197;-85
2023/01/04 04:32:34;;;;;;;7.65;2.50;;;24.50;99.90;;;;;;5033011;28;20755;-85
2023/01/04 04:35:05;;;;;;;8.02;2.53;;;24.50;99.90;;;;;;5030684;28;20656;-88
2023/01/04 04:37:36;;;;;;;7.93;2.42;;;24.50;99.90;;;;;;5026845;28;20577;-85
2023/01/04 04:41:37;;;;;;;9.73;2.30;;;24.40;99.90;;;;;;5028592;28;20213;-86
2023/01/04 04:42:59;;;;;;;6.63;2.30;;;24.40;99.90;;;;;;5032655;28;20201;-85
2023/01/04 04:45:30;;;;;;;4.65;1.92;;;24.30;99.90;;;;;;5027651;28;20227;-84
2023/01/04 04:48:01;;;;;;;8.43;2.13;;;24.30;99.90;;;;;;5032712;28;20291;-84
2023/01/04 04:50:32;;;;;;;6.38;1.92;;;24.30;99.90;;;;;;5029656;28;20534;-84
2023/01/04 04:53:03;;;;;;;4.68;1.67;;;24.30;99.90;;;;;;5027076;28;20197;-83
2023/01/04 04:55:34;;;;;;;8.30;2.53;;;24.10;99.90;;;;;;5026161;28;20211;-83
2023/01/04 04:58:07;;;;;;;6.13;2.53;;;24.10;99.90;;;;;;5025695;28;20197;-83
2023/01/04 05:00:40;;;;;;;7.60;3.08;;;24.10;99.90;;;;;;5025928;28;20225;-83
2023/01/04 05:03:10;;;;;;;7.88;3.10;;;24.10;99.90;;;;;;5025666;28;20197;-84
2023/01/04 05:05:41;;;;;;;8.77;3.08;;;24.10;99.90;;;;;;5027532;28;20228;-84
2023/01/04 05:08:15;;;;;;;6.10;2.55;;;24.00;99.90;;;;;;5032429;28;20209;-85
2023/01/04 05:10:46;;;;;;;6.35;2.42;;;24.00;99.90;;;;;;5050760;28;20196;-84
2023/01/04 05:13:17;;;;;;;5.30;2.40;;;23.90;99.90;;;;;;5028270;28;20200;-84
2023/01/04 05:15:54;;;;;;;6.60;2.22;;;23.90;99.90;;;;;;5026850;28;20286;-85
2023/01/04 05:18:26;;;;;;;4.15;1.52;;;24.00;99.90;;;;;;5025246;28;20232;-84
2023/01/04 05:20:57;;;;;;;6.53;2.00;;;23.90;99.90;;;;;;5031750;28;20196;-85
2023/01/04 05:23:28;;;;;;;5.35;2.00;;;23.80;99.90;;;;;;5027593;28;20232;-84
2023/01/04 05:26:03;;;;;;;4.82;1.85;;;23.70;99.90;;;;;;5026365;28;20220;-84
2023/01/04 05:28:39;;;;;;;6.43;1.90;;;23.70;99.90;;;;;;5008599;28;20552;-85
2023/01/04 05:31:08;;;;;;;4.63;1.50;;;23.70;99.90;;;;;;5027638;28;20584;-84
2023/01/04 05:33:39;;;;;;;5.78;1.90;;;23.60;99.90;;;;;;5025475;28;20201;-83
2023/01/04 05:36:10;;;;;;;5.13;1.70;;;23.60;99.90;;;;;;5024179;28;20593;-84
2023/01/04 05:38:41;;;;;;;6.07;1.90;;;23.60;99.90;;;;;;5027527;28;20545;-85
2023/01/04 05:43:57;;;;;;;7.03;1.85;;;23.60;99.90;;;;;;5023584;28;20224;-82
2023/01/04 05:46:31;;;;;;;7.13;2.20;;;23.50;99.90;;;;;;5024661;28;20224;-83
2023/01/04 05:49:02;;;;;;;5.95;1.52;;;23.50;99.90;;;;;;5024406;28;21557;-82
2023/01/04 05:51:33;;;;;;;5.40;1.88;;;23.50;99.90;;;;;;5027170;28;20221;-84
2023/01/04 05:54:04;;;;;;;6.00;1.58;;;23.40;99.90;;;;;;5028168;28;20197;-84
2023/01/04 05:56:34;;;;;;;5.90;1.67;;;23.40;99.90;;;;;;5025745;28;20562;-83
2023/01/04 05:59:07;;;;;;;5.88;1.73;;;23.40;99.90;;;;;;5024763;28;20571;-84
2023/01/04 06:01:38;;;;;;;5.10;1.45;;;23.30;99.90;;;;;;5025531;28;20307;-84
2023/01/04 06:04:09;;;;;;;3.42;1.38;;;23.20;99.90;;;;;;5026855;28;20675;-84
2023/01/04 06:06:40;;;;;;;5.43;1.35;;;23.20;99.90;;;;;;5035798;28;20220;-84
2023/01/04 06:09:11;;;;;;;5.75;1.75;;;23.20;99.90;;;;;;5027653;28;20296;-85
2023/01/04 06:11:43;;;;;;;4.95;1.58;;;23.20;99.90;;;;;;5043843;28;20216;-84
2023/01/04 06:14:17;;;;;;;3.85;1.23;;;23.20;99.90;;;;;;5039881;28;20283;-84
2023/01/04 06:16:48;;;;;;;5.53;1.63;;;23.20;99.90;;;;;;5026534;28;20297;-85
2023/01/04 06:19:18;;;;;;;2.53;1.00;;;23.10;99.90;;;;;;5026348;28;20701;-85
2023/01/04 06:21:49;;;;;;;2.22;0.90;;;23.10;99.90;;;;;;5031333;28;20190;-85
2023/01/04 06:24:23;;;;;;;3.10;1.05;;;23.00;99.90;;;;;;5028774;28;20197;-84
2023/01/04 06:26:53;;;;;;;2.78;1.00;;;23.00;99.90;;;;;;5026086;28;20232;-84
2023/01/04 06:29:26;;;;;;;1.45;0.80;;;22.90;99.90;;;;;;5023330;28;20215;-85
2023/01/04 06:31:57;;;;;;;2.78;0.98;;;22.80;99.90;;;;;;5027959;28;20197;-85
2023/01/04 06:34:28;;;;;;;2.78;0.90;;;22.80;99.90;;;;;;5026489;28;21122;-85
2023/01/04 06:36:59;;;;;;;1.35;0.70;;;22.80;99.90;;;;;;5027471;28;20228;-84
2023/01/04 06:39:30;;;;;;;2.13;0.90;;;22.70;99.90;;;;;;5026829;28;20306;-85
2023/01/04 06:42:01;;;;;;;2.60;1.00;;;22.60;99.90;;;;;;5028390;28;20676;-84
2023/01/04 06:44:34;;;;;;;2.22;0.95;;;22.60;99.90;;;;;;5027688;28;20197;-85
2023/01/04 06:47:07;;;;;;;3.42;0.88;;;22.60;99.90;;;;;;5036225;28;20227;-85
2023/01/04 06:49:38;;;;;;;3.13;0.88;;;22.60;99.90;;;;;;5024833;28;20204;-85
2023/01/04 06:52:09;;;;;;;2.70;0.68;;;22.50;99.90;;;;;;5035383;28;20212;-85
2023/01/04 06:54:40;;;;;;;2.47;1.17;;;22.50;99.90;;;;;;5029274;28;20675;-85
2023/01/04 06:57:11;;;;;;;1.98;0.88;;;22.40;99.90;;;;;;5030934;28;20235;-86
2023/01/04 06:59:44;;;;;;;3.35;1.17;;;22.40;99.90;;;;;;5028944;28;20676;-83
2023/01/04 07:02:17;;;;;;;1.95;0.90;;;22.40;99.90;;;;;;5031990;28;20357;-83
2023/01/04 07:04:48;;;;;;;3.42;1.13;;;22.40;99.90;;;;;;5029771;28;21825;-83
2023/01/04 07:07:18;;;;;;;5.40;1.27;;;22.40;99.90;;;;;;5029624;28;20235;-83
2023/01/04 07:09:49;;;;;;;5.75;1.38;;;22.40;99.90;;;;;;5029474;28;20299;-84
2023/01/04 07:12:20;;;;;;;2.88;1.00;;;22.30;99.90;;;;;;5029231;28;20204;-82
2023/01/04 07:14:53;;;;;;;5.38;1.38;;;22.30;99.90;;;;;;5034322;28;20826;-84
2023/01/04 07:17:24;;;;;;;4.05;1.35;;;22.20;99.90;;;;;;5039949;28;20211;-85
2023/01/04 07:19:55;;;;;;;7.10;1.40;;;22.20;99.90;;;;;;5032497;28;20207;-85
2023/01/04 07:22:25;;;;;;;6.28;1.58;;;22.20;99.90;;;;;;5029811;28;20196;-85
2023/01/04 07:24:56;;;;;;;7.18;1.90;;;22.20;99.90;;;;;;5029131;28;20536;-85
2023/01/04 07:27:27;;;;;;;6.47;1.60;;;22.10;99.90;;;;;;5027117;28;20239;-83
2023/01/04 07:30:00;;;;;;;4.38;1.60;;;22.00;99.90;;;;;;5025157;28;20668;-83
2023/01/04 07:32:30;;;;;;;4.53;1.80;;;22.00;99.90;;;;;;5035330;28;20501;-84
2023/01/04 07:35:02;;;;;;;6.30;1.55;;;22.00;99.90;;;;;;5033776;28;20302;-83
2023/01/04 07:37:32;;;;;;;3.75;1.30;;;21.90;99.90;;;;;;5027223;28;20212;-84
2023/01/04 07:40:03;;;;;;;6.95;1.58;;;21.90;99.90;;;;;;5026860;28;20197;-83
2023/01/04 07:42:34;;;;;;;4.35;1.45;;;22.00;99.90;;;;;;5030163;28;20358;-83
2023/01/04 07:45:08;;;;;;;3.00;1.60;;;21.90;99.90;;;;;;5028119;28;20204;-84
2023/01/04 07:47:39;;;;;;;4.93;1.55;;;21.90;99.90;;;;;;5027581;28;20197;-85
2023/01/04 07:50:13;;;;;;;5.57;2.30;;;22.10;99.90;;;;;;5028212;28;20201;-83
2023/01/04 07:52:43;;;;;;;3.08;1.40;;;22.20;99.90;;;;;;5028066;28;20205;-83
2023/01/04 07:55:15;;;;;;;6.57;1.40;;;22.40;99.90;;;;;;5027810;28;20193;-84
2023/01/04 07:57:46;;;;;;;4.30;1.08;;;22.70;99.90;;;;;;5028355;28;20197;-83
2023/01/04 08:00:20;;;;;;;4.10;1.50;;;22.70;99.90;;;;;;5027392;28;20207;-85
2023/01/04 08:02:52;;;;;;;4.07;1.20;;;22.60;99.90;;;;;;5027169;28;20616;-83
2023/01/04 08:05:24;;;;;;;6.45;1.90;;;22.60;99.90;;;;;;5026515;28;20219;-84
2023/01/04 08:07:58;;;;;;;6.15;2.08;;;22.60;99.90;;;;;;5027167;28;20201;-84
2023/01/04 08:10:29;;;;;;;6.75;1.77;;;22.60;99.90;;;;;;5027189;28;20196;-83
2023/01/04 08:13:03;;;;;;;10.32;1.95;;;22.50;99.90;;;;;;5027915;28;20201;-83
2023/01/04 08:15:35;;;;;;;9.10;2.00;;;22.40;99.90;;;;;;5027164;28;20200;-84
2023/01/04 08:18:06;;;;;;;7.10;1.65;;;22.30;99.90;;;;;;5043220;28;20588;-83
2023/01/04 08:20:37;;;;;;;7.43;1.92;;;22.20;99.90;;;;;;5036086;28;20638;-83
2023/01/04 08:23:08;;;;;;;7.28;1.52;;;22.20;99.90;;;;;;5027608;28;20235;-83
2023/01/04 08:25:39;;;;;;;7.47;1.70;;;22.20;99.90;;;;;;5027622;28;20205;-83
2023/01/04 08:28:09;;;;;;;7.90;1.70;;;22.20;99.90;;;;;;5025437;28;20905;-84
2023/01/04 08:30:43;;;;;;;8.93;2.35;;;22.20;99.90;;;;;;5026949;28;20196;-84
2023/01/04 08:33:17;;;;;;;7.75;1.60;;;22.20;99.90;;;;;;5031247;28;20323;-84
2023/01/04 08:35:48;;;;;;;5.10;1.70;;;22.10;99.90;;;;;;5027698;28;20556;-83
2023/01/04 08:38:19;;;;;;;8.20;1.90;;;22.10;99.90;;;;;;5027368;28;20227;-85
2023/01/04 08:40:49;;;;;;;7.22;2.40;;;22.10;99.90;;;;;;5027477;28;20201;-86
2023/01/04 08:43:20;;;;;;;5.85;1.65;;;22.00;99.90;;;;;;5032115;28;20571;-86
2023/01/04 08:45:53;;;;;;;8.65;2.40;;;21.90;99.90;;;;;;5049827;28;20284;-86
2023/01/04 08:48:24;;;;;;;7.90;1.67;;;21.90;99.90;;;;;;5033655;28;20196;-86
2023/01/04 08:50:55;;;;;;;6.05;2.35;;;21.90;99.90;;;;;;5030917;28;20197;-86
2023/01/04 08:53:25;;;;;;;7.47;3.00;;;21.90;99.90;;;;;;5030809;28;20681;-86
2023/01/04 08:55:58;;;;;;;4.38;1.50;;;21.90;99.90;;;;;;5038543;28;20203;-85
2023/01/04 08:58:29;;;;;;;5.07;1.35;;;21.90;99.90;;;;;;5034265;28;20212;-85
2023/01/04 09:01:08;;;;;;;4.97;1.60;;;21.90;99.90;;;;;;5037662;28;20193;-84
2023/01/04 09:03:40;;;;;;;3.03;1.10;;;21.90;99.90;;;;;;5026012;28;20201;-84
2023/01/04 09:06:13;;;;;;;3.80;1.00;;;21.90;99.90;;;;;;5027098;28;20278;-84
2023/01/04 09:08:45;;;;;;;3.85;0.95;;;21.90;99.90;;;;;;5027138;28;20215;-84
2023/01/04 09:11:16;;;;;;;2.83;0.90;;;21.90;99.90;;;;;;5026476;28;20805;-85
2023/01/04 09:13:49;;;;;;;3.65;1.00;;;21.90;99.90;;;;;;5026621;28;20201;-85
2023/01/04 09:16:22;;;;;;;3.80;1.25;;;21.80;99.90;;;;;;5028219;28;20208;-84
2023/01/04 09:18:53;;;;;;;2.90;1.08;;;21.70;99.90;;;;;;5028378;28;20224;-85
2023/01/04 09:21:26;;;;;;;3.95;0.80;;;21.70;99.90;;;;;;5051308;28;20200;-86
2023/01/04 09:23:58;;;;;;;3.47;0.90;;;21.70;99.90;;;;;;5028489;28;20197;-85
2023/01/04 09:26:29;;;;;;;4.90;1.00;;;21.60;99.90;;;;;;5034349;28;20785;-86
2023/01/04 09:29:00;;;;;;;4.55;1.20;;;21.60;99.90;;;;;;5026887;28;20307;-86
2023/01/04 09:31:32;;;;;;;5.72;1.58;;;21.60;99.90;;;;;;5028934;28;20671;-85
2023/01/04 09:34:03;;;;;;;2.42;1.08;;;21.50;99.90;;;;;;5029049;28;20193;-86
2023/01/04 09:36:34;;;;;;;2.20;1.10;;;21.50;99.90;;;;;;5038344;28;20217;-84
2023/01/04 09:39:05;;;;;;;3.95;1.08;;;21.50;99.90;;;;;;5035466;28;20551;-85
2023/01/04 09:41:40;;;;;;;2.70;0.93;;;21.50;99.90;;;;;;5033504;28;20622;-83
2023/01/04 09:44:19;;;;;;;2.35;0.75;;;21.50;99.90;;;;;;5035556;28;20196;-85
2023/01/04 09:46:55;;;;;;;3.13;1.23;;;21.50;99.90;;;;;;5028479;28;20216;-83
2023/01/04 09:49:30;;;;;;;2.65;1.00;;;21.50;99.90;;;;;;5027247;28;20196;-84
2023/01/04 09:52:06;;;;;;;4.03;1.60;;;21.30;99.90;;;;;;5028839;28;21348;-84
2023/01/04 09:54:47;;;;;;;2.97;1.00;;;21.30;99.90;;;;;;5028999;28;20874;-84
2023/01/04 09:57:25;;;;;;;3.35;1.15;;;21.30;99.90;;;;;;5031707;28;20266;-84
2023/01/04 10:00:13;;;;;;;2.20;0.90;;;21.30;99.90;;;;;;5032807;28;20200;-85
2023/01/04 10:03:07;;;;;;;3.72;1.20;;;21.30;99.90;;;;;;5032396;28;20208;-83
2023/01/04 10:05:39;;;;;;;2.22;1.20;;;21.20;99.90;;;;;;5029779;28;20528;-85
2023/01/04 10:08:19;;;;;;;3.28;1.10;;;21.30;99.90;;;;;;5030763;28;20311;-84
2023/01/04 10:11:12;;;;;;;6.47;1.60;;;21.30;99.90;;;;;;5031574;28;20205;-85
2023/01/04 10:14:02;;;;;;;4.68;0.90;;;21.30;99.90;;;;;;5032169;28;20680;-84
2023/01/04 10:17:08;;;;;;;2.85;0.95;;;21.30;99.90;;;;;;5043610;28;20252;-84
2023/01/04 10:20:11;;;;;;;2.83;0.95;;;21.20;99.90;;;;;;5063650;28;20228;-85
2023/01/04 10:22:52;;;;;;;2.78;0.88;;;21.30;99.90;;;;;;5030064;28;20199;-84
2023/01/04 10:25:51;;;;;;;4.20;0.95;;;21.20;99.90;;;;;;5059015;28;20223;-84
2023/01/04 10:29:01;;;;;;;2.65;0.82;;;21.20;99.90;;;;;;5059955;28;20232;-85
2023/01/04 10:31:41;;;;;;;3.72;1.00;;;21.30;99.90;;;;;;5060317;28;20228;-85
2023/01/04 10:34:27;;;;;;;3.35;1.10;;;21.30;99.90;;;;;;5057740;28;20196;-83
2023/01/04 10:37:16;;;;;;;4.35;0.93;;;21.30;99.90;;;;;;5050078;28;20280;-84
2023/01/04 10:39:56;;;;;;;4.22;1.05;;;21.20;99.90;;;;;;5058621;28;20264;-85
2023/01/04 10:42:48;;;;;;;2.58;0.70;;;21.20;99.90;;;;;;5057059;28;20200;-84
2023/01/04 10:45:32;;;;;;;2.70;0.95;;;21.10;99.90;;;;;;5059772;28;20200;-85
2023/01/04 10:48:19;;;;;;;3.08;1.05;;;21.20;99.90;;;;;;5056251;28;20598;-84
2023/01/04 10:51:06;;;;;;;2.38;0.88;;;21.20;99.90;;;;;;5057365;28;20193;-84
2023/01/04 10:53:45;;;;;;;2.95;0.88;;;21.20;99.90;;;;;;5047067;28;20201;-85
2023/01/04 10:56:26;;;;;;;2.17;0.90;;;21.20;99.90;;;;;;5040012;28;20687;-86
2023/01/04 10:59:20;;;;;;;3.10;0.90;;;21.20;99.90;;;;;;5053121;28;20283;-85
2023/01/04 11:02:07;;;;;;;2.17;0.73;;;21.20;99.90;;;;;;5054659;28;20228;-86
2023/01/04 11:04:42;;;;;;;2.22;0.85;;;21.10;99.90;;;;;;5055779;28;20678;-85
2023/01/04 11:07:34;;;;;;;2.17;0.85;;;21.10;99.90;;;;;;5067292;28;20227;-86
2023/01/04 11:10:26;;;;;;;2.95;0.90;;;21.10;99.90;;;;;;5062267;28;20207;-85
2023/01/04 11:13:00;;;;;;;3.58;0.98;;;21.00;99.90;;;;;;5056886;28;20203;-84
2023/01/04 11:15:41;;;;;;;4.03;0.93;;;21.00;99.90;;;;;;5057509;28;20204;-85
2023/01/04 11:18:21;;;;;;;2.47;0.80;;;21.00;99.90;;;;;;5053572;28;20228;-85
2023/01/04 11:21:11;;;;;;;2.05;0.80;;;20.90;99.90;;;;;;5055322;28;20243;-85
2023/01/04 11:23:46;;;;;;;4.63;1.20;;;20.80;99.90;;;;;;5055962;28;20209;-85
2023/01/04 11:26:33;;;;;;;5.57;1.02;;;20.70;99.90;;;;;;5077766;28;20195;-85
2023/01/04 11:32:02;;;;;;;7.57;0.77;;;20.60;99.90;;;;;;5055427;28;20208;-83
2023/01/04 11:35:13;;;;;;;3.40;0.77;;;20.50;99.90;;;;;;5056988;28;20211;-84
2023/01/04 11:37:52;;;;;;;7.72;0.80;;;20.50;99.90;;;;;;4995792;28;20301;-85
2023/01/04 11:40:30;;;;;;;5.35;0.88;;;20.50;99.90;;;;;;5051032;28;20234;-86
2023/01/04 11:43:22;;;;;;;5.80;1.00;;;20.50;99.90;;;;;;5056738;28;20266;-84
2023/01/04 11:46:08;;;;;;;6.75;1.35;;;20.40;99.90;;;;;;5059230;28;20739;-86
2023/01/04 11:48:44;;;;;;;4.53;1.08;;;20.50;99.90;;;;;;5065385;28;20236;-84
2023/01/04 11:51:36;;;;;;;8.88;1.50;;;20.60;99.90;;;;;;5046366;28;20197;-84
2023/01/04 11:54:08;;;;;;;4.78;1.25;;;20.60;99.90;;;;;;5056794;28;20204;-86
2023/01/04 11:56:40;;;;;;;8.38;1.42;;;20.60;99.90;;;;;;5046239;28;20436;-85
2023/01/04 11:59:20;;;;;;;10.35;1.60;;;20.50;99.90;;;;;;5054016;28;20629;-86
2023/01/04 12:01:54;;;;;;;7.28;1.25;;;20.60;99.90;;;;;;5047901;28;20236;-85
2023/01/04 12:04:27;;;;;;;8.20;1.33;;;20.50;99.90;;;;;;5054197;28;20727;-85
2023/01/04 12:07:01;;;;;;;6.40;1.30;;;20.40;99.90;;;;;;5055359;28;20758;-85
2023/01/04 12:09:33;;;;;;;4.20;1.02;;;20.40;99.90;;;;;;5048727;28;20190;-85
2023/01/04 12:12:04;;;;;;;8.23;1.10;;;20.50;99.90;;;;;;5053401;28;20204;-85
2023/01/04 12:14:39;;;;;;;6.93;1.52;;;20.30;99.90;;;;;;5055934;28;20207;-86
2023/01/04 12:17:19;;;;;;;6.35;1.38;;;20.30;99.90;;;;;;5058296;28;20200;-86
2023/01/04 12:19:53;;;;;;;5.55;1.25;;;20.30;99.90;;;;;;5052995;28;20232;-85
2023/01/04 12:22:30;;;;;;;6.45;1.10;;;20.30;99.90;;;;;;5051221;28;20199;-85
2023/01/04 12:25:03;;;;;;;4.22;1.08;;;20.40;99.90;;;;;;5065883;28;20662;-86
2023/01/04 12:27:35;;;;;;;6.43;1.27;;;20.40;99.90;;;;;;5042566;28;20231;-86
2023/01/04 12:30:30;;;;;;;2.88;0.90;;;20.30;99.90;;;;;;5047247;28;20261;-85
2023/01/04 12:33:01;;;;;;;3.28;0.90;;;20.20;99.90;;;;;;5044851;28;20286;-85
2023/01/04 12:36:06;;;;;;;4.63;1.02;;;20.20;99.90;;;;;;5059747;28;20564;-86
2023/01/04 12:39:06;;;;;;;3.88;0.82;;;20.20;99.90;;;;;;5054460;28;20207;-87
2023/01/04 12:42:23;;;;;;;3.72;1.20;;;20.30;99.90;;;;;;5054872;28;20199;-85
2023/01/04 12:45:24;;;;;;;4.50;1.08;;;20.30;99.90;;;;;;5032420;28;20197;-87
2023/01/04 12:51:22;;;;;;;5.85;1.10;;;20.20;99.90;;;;;;5056310;28;20223;-86
2023/01/04 12:54:08;;;;;;;5.45;1.10;;;20.30;99.90;;;;;;5021352;28;20635;-85
2023/01/04 12:57:24;;;;;;;2.75;0.63;;;20.30;99.90;;;;;;5054364;28;20246;-85
2023/01/04 13:00:00;;;;;;;9.25;1.20;;;20.30;99.90;;;;;;5053506;28;20204;-85
2023/01/04 13:02:33;;;;;;;4.45;1.00;;;20.30;99.90;;;;;;5050157;28;20286;-85
2023/01/04 13:05:05;;;;;;;4.88;0.95;;;20.20;99.90;;;;;;5052045;28;20200;-84
2023/01/04 13:07:43;;;;;;;5.95;1.35;;;20.20;99.90;;;;;;5051506;28;20729;-84
2023/01/04 13:10:29;;;;;;;8.38;1.35;;;20.20;99.90;;;;;;5050132;28;20281;-83
2023/01/04 13:13:34;;;;;;;6.90;1.40;;;20.20;99.90;;;;;;5050977;28;20265;-85
2023/01/04 13:16:20;;;;;;;5.53;1.30;;;20.30;99.90;;;;;;5047608;28;20235;-84
2023/01/04 13:18:55;;;;;;;8.40;1.70;;;20.30;99.90;;;;;;5049660;28;20542;-85
2023/01/04 13:21:30;;;;;;;7.13;1.73;;;20.30;99.90;;;;;;5053016;28;20200;-84
2023/01/04 13:24:06;;;;;;;9.38;2.05;;;20.40;99.90;;;;;;5054141;28;20200;-85
2023/01/04 13:26:41;;;;;;;6.78;1.70;;;20.50;99.90;;;;;;5057527;28;20268;-84
2023/01/04 13:29:25;;;;;;;10.32;1.70;;;20.40;99.90;;;;;;5054459;28;20256;-84
2023/01/04 13:31:59;;;;;;;6.55;1.60;;;20.50;99.90;;;;;;5060342;28;20200;-85
2023/01/04 13:34:35;;;;;;;6.97;1.67;;;20.50;99.90;;;;;;5070404;28;20201;-84
2023/01/04 13:37:20;;;;;;;7.82;1.63;;;20.40;99.90;;;;;;5055115;28;20216;-85
2023/01/04 13:39:53;;;;;;;9.02;1.60;;;20.40;99.90;;;;;;5056248;28;20208;-85
2023/01/04 13:42:29;;;;;;;6.00;1.50;;;20.40;99.90;;;;;;5055059;28;20196;-85
2023/01/04 13:45:30;;;;;;;9.93;1.88;;;20.40;99.90;;;;;;5034698;28;20201;-85
2023/01/04 13:48:03;;;;;;;6.63;1.60;;;20.30;99.90;;;;;;5038099;28;20310;-84
2023/01/04 13:50:39;;;;;;;7.53;1.75;;;20.30;99.90;;;;;;5048950;28;20275;-85
2023/01/04 13:53:19;;;;;;;7.47;1.42;;;20.10;99.90;;;;;;5051676;28;20284;-84
2023/01/04 13:55:54;;;;;;;8.57;1.70;;;20.20;99.90;;;;;;5050954;28;20216;-85
2023/01/04 13:58:26;;;;;;;7.50;1.65;;;20.10;99.90;;;;;;5055558;28;20203;-84
2023/01/04 14:00:59;;;;;;;7.60;1.77;;;20.10;99.90;;;;;;5033917;28;20196;-85
2023/01/04 14:03:41;;;;;;;9.23;1.95;;;20.10;99.90;;;;;;5048702;28;20870;-86
2023/01/04 14:06:30;;;;;;;8.88;1.92;;;20.10;99.90;;;;;;5056121;28;20267;-86
2023/01/04 14:09:18;;;;;;;8.38;1.80;;;20.10;99.90;;;;;;5051228;28;20212;-86
2023/01/04 14:12:02;;;;;;;10.30;2.28;;;20.00;99.90;;;;;;5050645;28;20199;-86
2023/01/04 14:14:37;;;;;;;10.85;2.90;;;20.10;99.90;;;;;;5047832;28;20196;-86
2023/01/04 14:17:18;;;;;;;13.05;2.40;;;20.10;99.90;;;;;;5061177;28;20200;-86
2023/01/04 14:19:51;;;;;;;11.30;2.40;;;20.10;99.90;;;;;;5048920;28;20717;-85
2023/01/04 14:22:40;;;;;;;11.45;2.80;;;20.00;99.90;;;;;;5043236;28;20196;-85